createdAt,value
2023-05-22T00:00:45.616Z,0.00
2023-05-22T00:01:45.591Z,0.00
2023-05-22T00:02:45.690Z,0.00
2023-05-22T00:03:45.555Z,0.00
2023-05-22T00:04:45.578Z,0.00
2023-05-22T00:05:45.523Z,0.00
2023-05-22T00:06:45.541Z,0.00
2023-05-22T00:07:45.515Z,0.00
2023-05-22T00:08:45.487Z,0.00
2023-05-22T00:09:45.488Z,0.00
2023-05-22T00:10:45.478Z,0.00
2023-05-22T00:11:45.451Z,0.00
2023-05-22T00:12:45.442Z,0.00
2023-05-22T00:13:45.450Z,0.00
2023-05-22T00:14:45.421Z,0.00
2023-05-22T00:15:45.444Z,0.00
2023-05-22T00:16:45.457Z,0.00
2023-05-22T00:17:45.457Z,0.00
2023-05-22T00:18:45.465Z,0.00
2023-05-22T00:19:45.378Z,0.00
2023-05-22T00:20:45.361Z,0.00
2023-05-22T00:21:45.394Z,0.00
2023-05-22T00:22:45.372Z,0.00
2023-05-22T00:23:45.330Z,0.00
2023-05-22T00:24:45.335Z,0.00
2023-05-22T00:25:45.370Z,0.00
2023-05-22T00:26:45.332Z,0.00
2023-05-22T00:27:45.297Z,0.00
2023-05-22T00:28:45.281Z,0.00
2023-05-22T00:29:45.266Z,0.00
2023-05-22T00:30:45.327Z,0.00
2023-05-22T00:31:45.288Z,0.00
2023-05-22T00:32:45.309Z,0.00
2023-05-22T00:33:45.247Z,0.00
2023-05-22T00:34:45.307Z,0.00
2023-05-22T00:35:45.230Z,0.00
2023-05-22T00:36:45.237Z,0.00
2023-05-22T00:37:45.199Z,0.00
2023-05-22T00:38:45.211Z,0.00
2023-05-22T00:39:45.206Z,0.00
2023-05-22T00:40:45.193Z,0.00
2023-05-22T00:41:45.169Z,0.00
2023-05-22T00:42:45.153Z,0.00
2023-05-22T00:43:45.171Z,0.00
2023-05-22T00:44:45.143Z,0.00
2023-05-22T00:45:45.169Z,0.00
2023-05-22T00:46:45.233Z,0.00
2023-05-22T00:47:45.124Z,0.00
2023-05-22T00:48:45.104Z,0.00
2023-05-22T00:49:45.112Z,0.00
2023-05-22T00:50:45.100Z,0.00
2023-05-22T00:51:45.203Z,0.00
2023-05-22T00:52:45.071Z,0.00
2023-05-22T00:53:45.058Z,0.00
2023-05-22T00:54:45.049Z,0.00
2023-05-22T00:55:45.041Z,0.00
2023-05-22T00:56:45.008Z,0.00
2023-05-22T00:57:45.039Z,0.00
2023-05-22T00:58:44.987Z,0.00
2023-05-22T00:59:44.975Z,0.00
2023-05-22T01:00:44.988Z,0.00
2023-05-22T01:01:45.011Z,0.00
2023-05-22T01:02:45.058Z,0.00
2023-05-22T01:03:45.265Z,0.00
2023-05-22T01:04:44.953Z,0.00
2023-05-22T01:05:44.920Z,0.00
2023-05-22T01:06:45.014Z,0.00
2023-05-22T01:07:44.923Z,0.00
2023-05-22T01:08:44.899Z,0.00
2023-05-22T01:09:44.896Z,0.00
2023-05-22T01:10:44.882Z,0.00
2023-05-22T01:11:44.857Z,0.00
2023-05-22T01:12:44.860Z,0.00
2023-05-22T01:13:44.861Z,0.00
2023-05-22T01:14:44.849Z,0.00
2023-05-22T01:15:44.843Z,0.00
2023-05-22T01:16:44.925Z,0.00
2023-05-22T01:17:44.867Z,0.00
2023-05-22T01:18:44.807Z,0.00
2023-05-22T01:19:44.808Z,0.00
2023-05-22T01:20:46.544Z,0.00
2023-05-22T01:21:44.771Z,0.00
2023-05-22T01:22:44.763Z,0.00
2023-05-22T01:23:44.737Z,0.00
2023-05-22T01:24:44.772Z,0.00
2023-05-22T01:25:44.723Z,0.00
2023-05-22T01:26:44.756Z,0.00
2023-05-22T01:27:44.708Z,0.00
2023-05-22T01:28:44.796Z,0.00
2023-05-22T01:29:44.695Z,0.00
2023-05-22T01:30:44.679Z,0.00
2023-05-22T01:31:44.689Z,0.00
2023-05-22T01:32:44.742Z,0.00
2023-05-22T01:33:44.750Z,0.00
2023-05-22T01:34:44.642Z,0.00
2023-05-22T01:35:44.624Z,0.00
2023-05-22T01:36:44.627Z,0.00
2023-05-22T01:37:44.610Z,0.00
2023-05-22T01:38:44.604Z,0.00
2023-05-22T01:39:44.656Z,0.00
2023-05-22T01:40:44.601Z,0.00
2023-05-22T01:41:44.562Z,0.00
2023-05-22T01:42:44.567Z,0.00
2023-05-22T01:43:44.557Z,0.00
2023-05-22T01:44:44.543Z,0.00
2023-05-22T01:45:44.536Z,0.00
2023-05-22T01:46:44.522Z,0.00
2023-05-22T01:47:44.609Z,0.00
2023-05-22T01:48:44.519Z,0.00
2023-05-22T01:49:44.485Z,0.00
2023-05-22T01:50:44.479Z,0.00
2023-05-22T01:51:44.496Z,0.00
2023-05-22T01:52:44.497Z,0.00
2023-05-22T01:53:44.466Z,0.00
2023-05-22T01:54:44.474Z,0.00
2023-05-22T01:55:44.442Z,0.00
2023-05-22T01:56:44.450Z,0.00
2023-05-22T01:57:44.423Z,0.00
2023-05-22T01:58:44.416Z,0.00
2023-05-22T01:59:44.420Z,0.00
2023-05-22T02:00:44.409Z,0.00
2023-05-22T02:01:44.439Z,0.00
2023-05-22T02:02:45.485Z,0.00
2023-05-22T02:03:44.430Z,0.00
2023-05-22T02:04:44.362Z,0.00
2023-05-22T02:05:44.373Z,0.00
2023-05-22T02:06:44.324Z,0.00
2023-05-22T02:07:44.370Z,0.00
2023-05-22T02:08:44.288Z,0.00
2023-05-22T02:09:44.312Z,0.00
2023-05-22T02:10:44.290Z,0.00
2023-05-22T02:11:44.285Z,0.00
2023-05-22T02:12:44.275Z,0.00
2023-05-22T02:13:44.293Z,0.00
2023-05-22T02:14:44.261Z,0.00
2023-05-22T02:15:44.301Z,0.00
2023-05-22T02:16:44.252Z,0.00
2023-05-22T02:17:44.297Z,0.00
2023-05-22T02:18:44.231Z,0.00
2023-05-22T02:19:44.208Z,0.00
2023-05-22T02:20:44.220Z,0.00
2023-05-22T02:21:44.173Z,0.00
2023-05-22T02:22:44.184Z,0.00
2023-05-22T02:23:44.154Z,0.00
2023-05-22T02:24:44.136Z,0.00
2023-05-22T02:25:44.199Z,0.00
2023-05-22T02:26:44.127Z,0.00
2023-05-22T02:27:44.110Z,0.00
2023-05-22T02:28:44.105Z,0.00
2023-05-22T02:29:44.101Z,0.00
2023-05-22T02:30:44.141Z,0.00
2023-05-22T02:31:44.088Z,0.00
2023-05-22T02:32:44.120Z,0.00
2023-05-22T02:33:44.063Z,0.00
2023-05-22T02:34:44.032Z,0.00
2023-05-22T02:35:44.044Z,0.00
2023-05-22T02:36:44.030Z,0.00
2023-05-22T02:37:44.009Z,0.00
2023-05-22T02:38:44.003Z,0.00
2023-05-22T02:39:43.994Z,0.00
2023-05-22T02:40:43.980Z,0.00
2023-05-22T02:41:43.976Z,0.00
2023-05-22T02:42:43.972Z,0.00
2023-05-22T02:43:43.980Z,0.00
2023-05-22T02:44:43.926Z,0.00
2023-05-22T02:45:43.923Z,0.00
2023-05-22T02:46:43.956Z,0.00
2023-05-22T02:47:43.949Z,0.00
2023-05-22T02:48:43.902Z,0.00
2023-05-22T02:49:43.875Z,0.00
2023-05-22T02:50:43.863Z,0.00
2023-05-22T02:51:43.909Z,0.00
2023-05-22T02:52:43.857Z,0.00
2023-05-22T02:53:43.850Z,0.00
2023-05-22T02:54:43.839Z,0.00
2023-05-22T02:55:43.806Z,0.00
2023-05-22T02:56:43.830Z,0.00
2023-05-22T02:57:43.804Z,0.00
2023-05-22T02:58:43.796Z,0.00
2023-05-22T02:59:43.779Z,0.00
2023-05-22T03:00:43.875Z,0.00
2023-05-22T03:01:43.773Z,0.00
2023-05-22T03:02:43.902Z,0.00
2023-05-22T03:03:43.871Z,0.00
2023-05-22T03:04:43.739Z,0.00
2023-05-22T03:05:43.712Z,0.00
2023-05-22T03:06:43.724Z,0.00
2023-05-22T03:07:45.043Z,0.00
2023-05-22T03:08:43.709Z,0.00
2023-05-22T03:09:43.674Z,0.00
2023-05-22T03:10:43.649Z,0.00
2023-05-22T03:11:43.688Z,0.00
2023-05-22T03:12:43.650Z,0.00
2023-05-22T03:13:43.654Z,5.62
2023-05-22T03:14:43.622Z,5.62
2023-05-22T03:15:43.642Z,5.62
2023-05-22T03:16:43.667Z,5.62
2023-05-22T03:17:43.644Z,5.62
2023-05-22T03:18:43.656Z,5.62
2023-05-22T03:19:43.612Z,5.62
2023-05-22T03:20:43.550Z,5.62
2023-05-22T03:21:44.656Z,11.25
2023-05-22T03:22:43.531Z,11.25
2023-05-22T03:23:43.561Z,11.25
2023-05-22T03:24:43.530Z,11.25
2023-05-22T03:25:43.501Z,16.88
2023-05-22T03:26:43.496Z,16.88
2023-05-22T03:27:43.503Z,16.88
2023-05-22T03:28:43.507Z,22.50
2023-05-22T03:29:43.484Z,22.50
2023-05-22T03:30:43.467Z,22.50
2023-05-22T03:31:43.476Z,28.12
2023-05-22T03:32:43.467Z,28.12
2023-05-22T03:33:43.479Z,33.75
2023-05-22T03:34:43.440Z,33.75
2023-05-22T03:35:43.411Z,39.38
2023-05-22T03:36:43.429Z,45.00
2023-05-22T03:37:43.385Z,45.00
2023-05-22T03:38:43.383Z,50.62
2023-05-22T03:39:43.386Z,50.62
2023-05-22T03:40:43.352Z,56.25
2023-05-22T03:41:43.346Z,61.88
2023-05-22T03:42:43.328Z,61.88
2023-05-22T03:43:45.036Z,67.50
2023-05-22T03:44:44.342Z,67.50
2023-05-22T03:45:43.362Z,73.12
2023-05-22T03:46:43.297Z,78.75
2023-05-22T03:47:43.341Z,84.38
2023-05-22T03:48:43.304Z,95.62
2023-05-22T03:49:43.296Z,101.25
2023-05-22T03:50:43.257Z,112.50
2023-05-22T03:51:43.267Z,112.50
2023-05-22T03:52:43.250Z,118.12
2023-05-22T03:53:43.233Z,129.38
2023-05-22T03:54:43.254Z,140.62
2023-05-22T03:55:43.222Z,140.62
2023-05-22T03:56:43.183Z,146.25
2023-05-22T03:57:44.192Z,146.25
2023-05-22T03:58:44.185Z,151.88
2023-05-22T03:59:43.187Z,163.12
2023-05-22T04:00:43.147Z,174.38
2023-05-22T04:01:43.144Z,180.00
2023-05-22T04:02:43.214Z,191.25
2023-05-22T04:03:43.149Z,191.25
2023-05-22T04:04:43.166Z,202.50
2023-05-22T04:05:43.126Z,213.75
2023-05-22T04:06:43.249Z,236.25
2023-05-22T04:07:43.134Z,253.12
2023-05-22T04:08:43.063Z,253.12
2023-05-22T04:09:43.053Z,253.12
2023-05-22T04:10:43.052Z,247.50
2023-05-22T04:11:43.049Z,253.12
2023-05-22T04:12:43.052Z,253.12
2023-05-22T04:13:43.072Z,258.75
2023-05-22T04:14:43.017Z,270.00
2023-05-22T04:15:43.064Z,275.62
2023-05-22T04:16:42.978Z,286.88
2023-05-22T04:17:42.985Z,292.50
2023-05-22T04:18:42.984Z,298.12
2023-05-22T04:19:42.984Z,309.38
2023-05-22T04:20:42.989Z,315.00
2023-05-22T04:21:42.938Z,326.25
2023-05-22T04:22:42.926Z,337.50
2023-05-22T04:23:42.950Z,348.75
2023-05-22T04:24:42.916Z,360.00
2023-05-22T04:25:43.963Z,371.25
2023-05-22T04:26:42.887Z,382.50
2023-05-22T04:27:42.876Z,405.00
2023-05-22T04:28:42.943Z,438.75
2023-05-22T04:29:42.910Z,466.88
2023-05-22T04:30:42.917Z,466.88
2023-05-22T04:31:42.915Z,444.38
2023-05-22T04:32:42.892Z,466.88
2023-05-22T04:33:42.848Z,489.38
2023-05-22T04:34:42.807Z,523.12
2023-05-22T04:35:42.807Z,556.88
2023-05-22T04:36:42.806Z,568.12
2023-05-22T04:37:42.798Z,585.00
2023-05-22T04:38:42.787Z,618.75
2023-05-22T04:39:42.823Z,618.75
2023-05-22T04:40:42.787Z,585.00
2023-05-22T04:41:42.730Z,568.12
2023-05-22T04:42:43.728Z,562.50
2023-05-22T04:43:42.743Z,585.00
2023-05-22T04:44:42.730Z,624.38
2023-05-22T04:45:42.699Z,669.38
2023-05-22T04:46:42.709Z,725.62
2023-05-22T04:47:42.774Z,759.38
2023-05-22T04:48:42.674Z,753.75
2023-05-22T04:49:42.667Z,742.50
2023-05-22T04:50:42.741Z,731.25
2023-05-22T04:51:42.643Z,731.25
2023-05-22T04:52:42.705Z,748.12
2023-05-22T04:53:42.608Z,753.75
2023-05-22T04:54:43.611Z,759.38
2023-05-22T04:55:42.589Z,748.12
2023-05-22T04:56:42.613Z,725.62
2023-05-22T04:58:14.542Z,725.62
2023-05-22T04:58:42.575Z,736.88
2023-05-22T04:59:42.594Z,753.75
2023-05-22T05:00:42.966Z,787.50
2023-05-22T05:01:42.644Z,821.25
2023-05-22T05:02:42.614Z,860.62
2023-05-22T05:03:42.586Z,900.00
2023-05-22T05:04:42.571Z,967.50
2023-05-22T05:05:42.505Z,1085.62
2023-05-22T05:06:42.524Z,1282.50
2023-05-22T05:07:42.490Z,1485.00
2023-05-22T05:08:42.509Z,1546.88
2023-05-22T05:09:42.506Z,1530.00
2023-05-22T05:10:42.507Z,1563.75
2023-05-22T05:11:42.445Z,1620.00
2023-05-22T05:12:42.474Z,1603.12
2023-05-22T05:13:42.422Z,1530.00
2023-05-22T05:14:42.437Z,1440.00
2023-05-22T05:15:42.421Z,1355.62
2023-05-22T05:16:42.462Z,1338.75
2023-05-22T05:17:42.450Z,1350.00
2023-05-22T05:18:42.383Z,1389.38
2023-05-22T05:19:42.389Z,1440.00
2023-05-22T05:20:42.361Z,1530.00
2023-05-22T05:21:42.396Z,1580.62
2023-05-22T05:22:42.324Z,1631.25
2023-05-22T05:23:42.326Z,1665.00
2023-05-22T05:24:42.328Z,1642.50
2023-05-22T05:25:42.305Z,1620.00
2023-05-22T05:26:42.295Z,1569.38
2023-05-22T05:27:43.037Z,1563.75
2023-05-22T05:28:42.268Z,1563.75
2023-05-22T05:29:42.265Z,1552.50
2023-05-22T05:30:42.393Z,1507.50
2023-05-22T05:31:42.293Z,1513.12
2023-05-22T05:32:42.273Z,1546.88
2023-05-22T05:33:42.229Z,1541.25
2023-05-22T05:34:42.225Z,1569.38
2023-05-22T05:35:43.155Z,1541.25
2023-05-22T05:36:43.311Z,1496.25
2023-05-22T05:37:42.222Z,1473.75
2023-05-22T05:38:42.200Z,1485.00
2023-05-22T05:39:42.207Z,1496.25
2023-05-22T05:40:42.151Z,1468.12
2023-05-22T05:41:42.154Z,1485.00
2023-05-22T05:42:42.150Z,1490.62
2023-05-22T05:43:42.206Z,1563.75
2023-05-22T05:44:42.114Z,1665.00
2023-05-22T05:45:42.136Z,1687.50
2023-05-22T05:46:42.129Z,1670.62
2023-05-22T05:47:42.150Z,1670.62
2023-05-22T05:48:42.072Z,1693.12
2023-05-22T05:49:42.075Z,1755.00
2023-05-22T05:50:42.207Z,1845.00
2023-05-22T05:51:42.053Z,1963.12
2023-05-22T05:52:42.074Z,1980.00
2023-05-22T05:53:42.025Z,1935.00
2023-05-22T05:54:42.050Z,1940.62
2023-05-22T05:55:42.024Z,1873.12
2023-05-22T05:56:42.004Z,1861.88
2023-05-22T05:57:42.011Z,1929.38
2023-05-22T05:58:42.015Z,1996.88
2023-05-22T05:59:41.983Z,2030.62
2023-05-22T06:00:42.110Z,2025.00
2023-05-22T06:01:41.958Z,1923.75
2023-05-22T06:02:42.139Z,1918.12
2023-05-22T06:03:42.004Z,1963.12
2023-05-22T06:04:41.931Z,2041.88
2023-05-22T06:05:41.993Z,2019.38
2023-05-22T06:06:41.937Z,1974.38
2023-05-22T06:07:41.915Z,1963.12
2023-05-22T06:08:41.905Z,1974.38
2023-05-22T06:09:41.965Z,2002.50
2023-05-22T06:10:42.097Z,2019.38
2023-05-22T06:11:41.859Z,2013.75
2023-05-22T06:12:41.857Z,2008.12
2023-05-22T06:13:41.850Z,1985.62
2023-05-22T06:14:41.860Z,1935.00
2023-05-22T06:15:41.866Z,1963.12
2023-05-22T06:16:41.888Z,1968.75
2023-05-22T06:17:41.834Z,1974.38
2023-05-22T06:18:41.819Z,1878.75
2023-05-22T06:19:41.779Z,1738.12
2023-05-22T06:20:41.983Z,1636.88
2023-05-22T06:21:41.768Z,1597.50
2023-05-22T06:22:41.756Z,1552.50
2023-05-22T06:23:41.744Z,1535.62
2023-05-22T06:24:41.774Z,1575.00
2023-05-22T06:25:41.741Z,1552.50
2023-05-22T06:26:41.715Z,1620.00
2023-05-22T06:27:41.703Z,1687.50
2023-05-22T06:28:41.694Z,1721.25
2023-05-22T06:29:41.691Z,1811.25
2023-05-22T06:30:41.822Z,1839.38
2023-05-22T06:31:41.703Z,1906.88
2023-05-22T06:32:42.894Z,1929.38
2023-05-22T06:33:41.659Z,1991.25
2023-05-22T06:34:41.639Z,2030.62
2023-05-22T06:35:41.667Z,1906.88
2023-05-22T06:36:41.629Z,1867.50
2023-05-22T06:37:41.616Z,1850.62
2023-05-22T06:38:41.656Z,1951.88
2023-05-22T06:39:41.608Z,1980.00
2023-05-22T06:40:41.806Z,2025.00
2023-05-22T06:41:41.578Z,2103.75
2023-05-22T06:42:41.591Z,2148.75
2023-05-22T06:43:41.570Z,2238.75
2023-05-22T06:44:41.584Z,2289.38
2023-05-22T06:45:41.568Z,2283.75
2023-05-22T06:46:41.548Z,2295.00
2023-05-22T06:47:41.595Z,2317.50
2023-05-22T06:48:41.493Z,2334.38
2023-05-22T06:49:41.728Z,2379.38
2023-05-22T06:50:41.533Z,2373.75
2023-05-22T06:51:41.478Z,2362.50
2023-05-22T06:52:41.484Z,2390.62
2023-05-22T06:53:41.487Z,2323.12
2023-05-22T06:54:41.557Z,2368.12
2023-05-22T06:55:41.430Z,2317.50
2023-05-22T06:56:41.428Z,2255.62
2023-05-22T06:57:41.406Z,2064.38
2023-05-22T06:58:41.509Z,1968.75
2023-05-22T06:59:41.401Z,1901.25
2023-05-22T07:00:41.640Z,1850.62
2023-05-22T07:01:41.479Z,1867.50
2023-05-22T07:02:41.401Z,1771.88
2023-05-22T07:03:41.375Z,1715.62
2023-05-22T07:04:41.367Z,1676.25
2023-05-22T07:05:41.359Z,1591.88
2023-05-22T07:06:41.333Z,1558.12
2023-05-22T07:07:41.336Z,1541.25
2023-05-22T07:08:41.300Z,1490.62
2023-05-22T07:09:41.326Z,1473.75
2023-05-22T07:10:41.509Z,1468.12
2023-05-22T07:11:42.309Z,1507.50
2023-05-22T07:12:41.280Z,1552.50
2023-05-22T07:13:41.339Z,1603.12
2023-05-22T07:14:41.248Z,1687.50
2023-05-22T07:15:41.276Z,1743.75
2023-05-22T07:16:41.290Z,1777.50
2023-05-22T07:17:41.266Z,1828.12
2023-05-22T07:18:41.215Z,1923.75
2023-05-22T07:19:41.203Z,1957.50
2023-05-22T07:20:41.582Z,1974.38
2023-05-22T07:21:41.235Z,1996.88
2023-05-22T07:22:41.214Z,1996.88
2023-05-22T07:23:41.184Z,2002.50
2023-05-22T07:24:41.204Z,1996.88
2023-05-22T07:25:41.151Z,1963.12
2023-05-22T07:26:41.169Z,1901.25
2023-05-22T07:27:41.150Z,1873.12
2023-05-22T07:28:41.165Z,1923.75
2023-05-22T07:29:41.110Z,1957.50
2023-05-22T07:30:41.295Z,1968.75
2023-05-22T07:31:41.153Z,1974.38
2023-05-22T07:32:41.144Z,1861.88
2023-05-22T07:33:41.068Z,1805.62
2023-05-22T07:34:41.087Z,1788.75
2023-05-22T07:35:41.073Z,1771.88
2023-05-22T07:36:41.047Z,1760.62
2023-05-22T07:37:41.057Z,1721.25
2023-05-22T07:38:41.054Z,1648.12
2023-05-22T07:39:41.008Z,1631.25
2023-05-22T07:40:41.192Z,1631.25
2023-05-22T07:41:40.995Z,1608.75
2023-05-22T07:42:41.118Z,1575.00
2023-05-22T07:43:40.969Z,1558.12
2023-05-22T07:44:40.949Z,1558.12
2023-05-22T07:45:41.151Z,1535.62
2023-05-22T07:46:41.003Z,1490.62
2023-05-22T07:47:41.009Z,1496.25
2023-05-22T07:48:40.926Z,1490.62
2023-05-22T07:49:40.929Z,1473.75
2023-05-22T07:50:40.913Z,1485.00
2023-05-22T07:51:40.886Z,1445.62
2023-05-22T07:52:40.863Z,1417.50
2023-05-22T07:53:41.887Z,1423.12
2023-05-22T07:54:42.360Z,1440.00
2023-05-22T07:55:41.095Z,1473.75
2023-05-22T07:56:40.850Z,1428.75
2023-05-22T07:57:40.821Z,1434.38
2023-05-22T07:58:40.992Z,1445.62
2023-05-22T07:59:40.814Z,1411.88
2023-05-22T08:00:40.849Z,1389.38
2023-05-22T08:01:40.785Z,1423.12
2023-05-22T08:02:40.883Z,1445.62
2023-05-22T08:03:40.956Z,1406.25
2023-05-22T08:04:40.829Z,1383.75
2023-05-22T08:05:40.779Z,1400.62
2023-05-22T08:06:40.753Z,1383.75
2023-05-22T08:07:40.733Z,1355.62
2023-05-22T08:08:40.728Z,1344.38
2023-05-22T08:09:40.739Z,1333.12
2023-05-22T08:10:52.140Z,1321.88
2023-05-22T08:11:41.721Z,1282.50
2023-05-22T08:12:40.684Z,1299.38
2023-05-22T08:13:40.710Z,1282.50
2023-05-22T08:14:41.660Z,1271.25
2023-05-22T08:15:40.718Z,1265.62
2023-05-22T08:16:40.690Z,1271.25
2023-05-22T08:17:40.653Z,1293.75
2023-05-22T08:18:40.615Z,1338.75
2023-05-22T08:19:40.731Z,1299.38
2023-05-22T08:20:40.828Z,1265.62
2023-05-22T08:21:40.623Z,1271.25
2023-05-22T08:22:40.607Z,1271.25
2023-05-22T08:23:40.573Z,1271.25
2023-05-22T08:24:40.686Z,1260.00
2023-05-22T08:25:40.554Z,1226.25
2023-05-22T08:26:40.559Z,1260.00
2023-05-22T08:27:40.554Z,1299.38
2023-05-22T08:28:40.518Z,1305.00
2023-05-22T08:29:40.534Z,1282.50
2023-05-22T08:30:40.744Z,1276.88
2023-05-22T08:31:40.575Z,1305.00
2023-05-22T08:32:40.522Z,1293.75
2023-05-22T08:33:40.494Z,1276.88
2023-05-22T08:34:40.491Z,1271.25
2023-05-22T08:35:40.477Z,1231.88
2023-05-22T08:36:40.446Z,1226.25
2023-05-22T08:37:40.455Z,1175.62
2023-05-22T08:38:40.468Z,1125.00
2023-05-22T08:39:40.432Z,1102.50
2023-05-22T08:40:41.933Z,1080.00
2023-05-22T08:41:40.406Z,1074.38
2023-05-22T08:42:40.390Z,1063.12
2023-05-22T08:43:40.458Z,1051.88
2023-05-22T08:44:40.393Z,1051.88
2023-05-22T08:45:40.394Z,1063.12
2023-05-22T08:46:40.413Z,1080.00
2023-05-22T08:47:40.373Z,1080.00
2023-05-22T08:48:40.363Z,1085.62
2023-05-22T08:49:40.362Z,1085.62
2023-05-22T08:50:40.511Z,1096.88
2023-05-22T08:51:40.303Z,1147.50
2023-05-22T08:52:40.317Z,1209.38
2023-05-22T08:53:40.310Z,1226.25
2023-05-22T08:54:40.286Z,1209.38
2023-05-22T08:55:40.261Z,1192.50
2023-05-22T08:56:52.994Z,1164.38
2023-05-22T08:57:40.253Z,1158.75
2023-05-22T08:58:40.291Z,1147.50
2023-05-22T08:59:40.233Z,1119.38
2023-05-22T09:00:40.401Z,1102.50
2023-05-22T09:01:40.354Z,1108.12
2023-05-22T09:02:40.352Z,1080.00
2023-05-22T09:03:40.241Z,1063.12
2023-05-22T09:04:40.209Z,1068.75
2023-05-22T09:05:40.211Z,1063.12
2023-05-22T09:06:40.168Z,1074.38
2023-05-22T09:07:40.184Z,1074.38
2023-05-22T09:08:40.155Z,1068.75
2023-05-22T09:09:40.164Z,1068.75
2023-05-22T09:10:40.359Z,1063.12
2023-05-22T09:11:40.143Z,1063.12
2023-05-22T09:12:40.118Z,1068.75
2023-05-22T09:13:40.166Z,1074.38
2023-05-22T09:14:40.097Z,1063.12
2023-05-22T09:15:40.104Z,1057.50
2023-05-22T09:16:40.124Z,1063.12
2023-05-22T09:17:40.120Z,1080.00
2023-05-22T09:18:40.111Z,1068.75
2023-05-22T09:19:40.163Z,1046.25
2023-05-22T09:20:40.233Z,1029.38
2023-05-22T09:21:40.035Z,1029.38
2023-05-22T09:22:40.003Z,1035.00
2023-05-22T09:23:40.028Z,1023.75
2023-05-22T09:24:40.076Z,1018.12
2023-05-22T09:25:39.989Z,1006.88
2023-05-22T09:26:40.006Z,1001.25
2023-05-22T09:27:39.979Z,990.00
2023-05-22T09:28:39.972Z,984.38
2023-05-22T09:29:39.965Z,984.38
2023-05-22T09:30:40.380Z,984.38
2023-05-22T09:31:39.960Z,984.38
2023-05-22T09:32:39.967Z,984.38
2023-05-22T09:33:39.914Z,973.12
2023-05-22T09:34:39.895Z,973.12
2023-05-22T09:35:39.912Z,973.12
2023-05-22T09:36:39.911Z,956.25
2023-05-22T09:37:39.951Z,956.25
2023-05-22T09:38:39.875Z,967.50
2023-05-22T09:39:39.921Z,973.12
2023-05-22T09:40:40.005Z,990.00
2023-05-22T09:41:39.866Z,984.38
2023-05-22T09:42:39.833Z,978.75
2023-05-22T09:43:39.848Z,961.88
2023-05-22T09:44:39.855Z,916.88
2023-05-22T09:45:39.806Z,900.00
2023-05-22T09:46:39.938Z,871.88
2023-05-22T09:47:39.819Z,855.00
2023-05-22T09:48:39.807Z,843.75
2023-05-22T09:49:39.762Z,826.88
2023-05-22T09:50:40.102Z,810.00
2023-05-22T09:51:39.760Z,798.75
2023-05-22T09:52:39.761Z,793.12
2023-05-22T09:53:39.749Z,793.12
2023-05-22T09:54:39.765Z,765.00
2023-05-22T09:55:39.702Z,753.75
2023-05-22T09:56:40.366Z,736.88
2023-05-22T09:57:39.681Z,742.50
2023-05-22T09:58:39.700Z,759.38
2023-05-22T09:59:39.690Z,765.00
2023-05-22T10:00:39.768Z,781.88
2023-05-22T10:01:39.717Z,781.88
2023-05-22T10:02:39.643Z,821.25
2023-05-22T10:03:39.635Z,826.88
2023-05-22T10:04:39.665Z,826.88
2023-05-22T10:05:39.608Z,843.75
2023-05-22T10:06:39.674Z,838.12
2023-05-22T10:07:39.590Z,849.38
2023-05-22T10:08:39.564Z,843.75
2023-05-22T10:09:40.615Z,843.75
2023-05-22T10:10:39.920Z,855.00
2023-05-22T10:11:39.554Z,866.25
2023-05-22T10:12:39.544Z,860.62
2023-05-22T10:13:39.518Z,855.00
2023-05-22T10:14:39.545Z,843.75
2023-05-22T10:15:39.506Z,843.75
2023-05-22T10:16:39.530Z,838.12
2023-05-22T10:17:39.515Z,832.50
2023-05-22T10:18:39.472Z,838.12
2023-05-22T10:19:42.248Z,843.75
2023-05-22T10:20:40.751Z,855.00
2023-05-22T10:21:39.451Z,855.00
2023-05-22T10:22:39.542Z,855.00
2023-05-22T10:23:39.432Z,855.00
2023-05-22T10:24:39.439Z,843.75
2023-05-22T10:25:39.472Z,838.12
2023-05-22T10:26:39.392Z,832.50
2023-05-22T10:27:39.382Z,815.62
2023-05-22T10:28:39.386Z,815.62
2023-05-22T10:29:39.371Z,815.62
2023-05-22T10:30:39.594Z,810.00
2023-05-22T10:31:40.598Z,815.62
2023-05-22T10:32:39.490Z,810.00
2023-05-22T10:33:39.385Z,798.75
2023-05-22T10:34:39.342Z,793.12
2023-05-22T10:35:39.318Z,787.50
2023-05-22T10:36:39.327Z,793.12
2023-05-22T10:37:39.286Z,793.12
2023-05-22T10:38:39.417Z,798.75
2023-05-22T10:39:39.266Z,804.38
2023-05-22T10:40:39.269Z,804.38
2023-05-22T10:41:39.292Z,798.75
2023-05-22T10:42:39.290Z,798.75
2023-05-22T10:43:39.240Z,781.88
2023-05-22T10:44:39.261Z,776.25
2023-05-22T10:45:39.262Z,770.62
2023-05-22T10:46:39.238Z,765.00
2023-05-22T10:47:39.225Z,765.00
2023-05-22T10:48:39.179Z,753.75
2023-05-22T10:49:39.226Z,736.88
2023-05-22T10:50:39.307Z,725.62
2023-05-22T10:51:39.159Z,714.38
2023-05-22T10:52:39.138Z,714.38
2023-05-22T10:53:39.147Z,714.38
2023-05-22T10:54:39.270Z,708.75
2023-05-22T10:55:39.121Z,720.00
2023-05-22T10:56:39.115Z,714.38
2023-05-22T10:57:39.179Z,708.75
2023-05-22T10:59:11.013Z,720.00
2023-05-22T10:59:39.115Z,720.00
2023-05-22T11:00:39.397Z,720.00
2023-05-22T11:01:39.173Z,731.25
2023-05-22T11:02:39.097Z,742.50
2023-05-22T11:03:39.076Z,736.88
2023-05-22T11:04:39.079Z,736.88
2023-05-22T11:05:39.058Z,714.38
2023-05-22T11:06:39.017Z,703.12
2023-05-22T11:07:39.022Z,703.12
2023-05-22T11:08:39.006Z,720.00
2023-05-22T11:09:39.003Z,720.00
2023-05-22T11:10:39.296Z,720.00
2023-05-22T11:11:38.996Z,725.62
2023-05-22T11:12:38.988Z,720.00
2023-05-22T11:13:38.994Z,725.62
2023-05-22T11:14:38.988Z,731.25
2023-05-22T11:15:38.943Z,725.62
2023-05-22T11:16:39.007Z,720.00
2023-05-22T11:17:38.974Z,703.12
2023-05-22T11:18:38.954Z,691.88
2023-05-22T11:19:39.017Z,691.88
2023-05-22T11:20:39.151Z,691.88
2023-05-22T11:21:38.921Z,686.25
2023-05-22T11:22:38.944Z,691.88
2023-05-22T11:23:38.868Z,708.75
2023-05-22T11:24:38.854Z,725.62
2023-05-22T11:25:38.838Z,725.62
2023-05-22T11:26:38.912Z,731.25
2023-05-22T11:27:38.846Z,736.88
2023-05-22T11:28:38.815Z,736.88
2023-05-22T11:29:38.887Z,736.88
2023-05-22T11:30:39.020Z,736.88
2023-05-22T11:31:39.902Z,736.88
2023-05-22T11:32:38.862Z,731.25
2023-05-22T11:33:38.821Z,725.62
2023-05-22T11:34:38.794Z,720.00
2023-05-22T11:35:38.741Z,714.38
2023-05-22T11:36:38.731Z,708.75
2023-05-22T11:37:38.770Z,697.50
2023-05-22T11:38:38.737Z,697.50
2023-05-22T11:39:38.710Z,708.75
2023-05-22T11:40:38.982Z,708.75
2023-05-22T11:41:38.678Z,708.75
2023-05-22T11:42:38.761Z,708.75
2023-05-22T11:43:38.703Z,697.50
2023-05-22T11:44:38.657Z,691.88
2023-05-22T11:45:38.660Z,686.25
2023-05-22T11:46:38.662Z,691.88
2023-05-22T11:47:38.702Z,686.25
2023-05-22T11:48:38.633Z,675.00
2023-05-22T11:49:38.631Z,669.38
2023-05-22T11:50:42.481Z,663.75
2023-05-22T11:51:40.614Z,663.75
2023-05-22T11:52:38.571Z,658.12
2023-05-22T11:53:38.573Z,663.75
2023-05-22T11:54:39.084Z,675.00
2023-05-22T11:55:39.568Z,680.62
2023-05-22T11:56:38.556Z,691.88
2023-05-22T11:57:38.549Z,697.50
2023-05-22T11:58:38.588Z,703.12
2023-05-22T11:59:38.497Z,708.75
2023-05-22T12:00:38.831Z,708.75
2023-05-22T12:01:38.482Z,714.38
2023-05-22T12:02:38.586Z,714.38
2023-05-22T12:03:38.639Z,714.38
2023-05-22T12:04:38.476Z,703.12
2023-05-22T12:05:38.443Z,697.50
2023-05-22T12:06:38.541Z,691.88
2023-05-22T12:07:38.445Z,686.25
2023-05-22T12:08:38.454Z,708.75
2023-05-22T12:09:38.412Z,714.38
2023-05-22T12:10:38.533Z,714.38
2023-05-22T12:11:38.420Z,720.00
2023-05-22T12:12:38.375Z,720.00
2023-05-22T12:13:38.384Z,725.62
2023-05-22T12:14:38.459Z,720.00
2023-05-22T12:15:38.340Z,725.62
2023-05-22T12:16:38.370Z,714.38
2023-05-22T12:17:38.460Z,714.38
2023-05-22T12:18:38.323Z,708.75
2023-05-22T12:19:38.309Z,703.12
2023-05-22T12:20:38.421Z,697.50
2023-05-22T12:21:38.280Z,691.88
2023-05-22T12:22:38.266Z,697.50
2023-05-22T12:23:38.314Z,686.25
2023-05-22T12:24:38.277Z,680.62
2023-05-22T12:25:38.256Z,675.00
2023-05-22T12:26:38.242Z,669.38
2023-05-22T12:27:38.664Z,669.38
2023-05-22T12:28:38.221Z,675.00
2023-05-22T12:29:38.205Z,663.75
2023-05-22T12:30:38.582Z,663.75
2023-05-22T12:31:38.291Z,652.50
2023-05-22T12:32:38.254Z,658.12
2023-05-22T12:33:38.160Z,646.88